Time;durP1;ratioP1;P1;durP2;ratioP2;P2;SDS_P1;SDS_P2;PMS_P1;PMS_P2;Temp;Humidity;BMP_temperature;BMP_pressure;BME280_temperature;BME280_humidity;BME280_pressure;Samples;Min_cycle;Max_cycle;Signal;HPM_P1;HPM_P2
2023/01/22 00:00:58;;;;;;;13.90;8.30;;;;;;;;;;5062362;28;20039;-71
2023/01/22 00:03:44;;;;;;;15.48;8.20;;;;;;;;;;5042402;28;20040;-71
2023/01/22 00:06:30;;;;;;;14.98;6.82;;;;;;;;;;5056838;28;20052;-70
2023/01/22 00:09:16;;;;;;;13.80;8.18;;;;;;;;;;5050709;28;20024;-71
2023/01/22 00:12:01;;;;;;;16.02;8.25;;;;;;;;;;5043729;28;20024;-71
2023/01/22 00:14:48;;;;;;;16.27;8.38;;;;;;;;;;5055396;28;20029;-72
2023/01/22 00:17:33;;;;;;;15.88;7.90;;;;;;;;;;5061769;28;20028;-71
2023/01/22 00:20:18;;;;;;;13.70;7.75;;;;;;;;;;5057340;28;20043;-76
2023/01/22 00:23:04;;;;;;;15.02;7.72;;;;;;;;;;5047359;28;20040;-84
2023/01/22 00:25:58;;;;;;;14.52;7.57;;;;;;;;;;5057748;28;20016;-84
2023/01/22 00:28:46;;;;;;;13.40;7.50;;;;;;;;;;5065308;28;20086;-84
2023/01/22 00:31:31;;;;;;;14.60;8.18;;;;;;;;;;5050196;28;20016;-85
2023/01/22 00:34:17;;;;;;;14.45;8.00;;;;;;;;;;5047783;28;20016;-82
2023/01/22 00:37:02;;;;;;;13.98;8.20;;;;;;;;;;5043018;28;20017;-82
2023/01/22 00:39:47;;;;;;;15.98;7.95;;;;;;;;;;5048806;28;20112;-71
2023/01/22 00:42:32;;;;;;;15.90;8.95;;;;;;;;;;5060064;28;20043;-71
2023/01/22 00:45:17;;;;;;;13.30;7.10;;;;;;;;;;5045940;28;20024;-71
2023/01/22 00:48:03;;;;;;;14.15;7.72;;;;;;;;;;5052523;28;20043;-71
2023/01/22 00:50:48;;;;;;;16.67;8.18;;;;;;;;;;5048110;28;20024;-71
2023/01/22 00:53:36;;;;;;;13.07;7.53;;;;;;;;;;5062832;28;20099;-71
2023/01/22 00:56:22;;;;;;;14.80;8.35;;;;;;;;;;5060887;28;20115;-78
2023/01/22 00:59:09;;;;;;;15.57;8.07;;;;;;;;;;5072057;28;20032;-72
2023/01/22 01:01:54;;;;;;;13.50;7.55;;;;;;;;;;5039350;28;20078;-71
2023/01/22 01:04:40;;;;;;;14.35;7.22;;;;;;;;;;5067710;28;20108;-69
2023/01/22 01:07:25;;;;;;;12.82;6.95;;;;;;;;;;5066039;28;20164;-71
2023/01/22 01:10:10;;;;;;;14.07;7.63;;;;;;;;;;5041189;28;20036;-69
2023/01/22 01:12:56;;;;;;;15.00;7.28;;;;;;;;;;5056509;28;20040;-70
2023/01/22 01:15:42;;;;;;;13.23;8.13;;;;;;;;;;5058167;28;20024;-74
2023/01/22 01:18:27;;;;;;;20.55;8.18;;;;;;;;;;5065847;28;20357;-70
2023/01/22 01:21:13;;;;;;;17.20;8.90;;;;;;;;;;5063980;28;20620;-72
2023/01/22 01:23:59;;;;;;;15.55;8.82;;;;;;;;;;5053825;28;20064;-70
2023/01/22 01:26:44;;;;;;;14.82;8.35;;;;;;;;;;5046554;28;20036;-71
2023/01/22 01:29:29;;;;;;;16.27;8.85;;;;;;;;;;5071319;28;20008;-70
2023/01/22 01:32:14;;;;;;;16.85;8.25;;;;;;;;;;5070178;28;20025;-76
2023/01/22 01:34:59;;;;;;;15.45;8.15;;;;;;;;;;5067220;28;20040;-70
2023/01/22 01:37:45;;;;;;;12.98;7.75;;;;;;;;;;5065031;28;20025;-71
2023/01/22 01:40:30;;;;;;;16.40;7.95;;;;;;;;;;5063741;28;20033;-70
2023/01/22 01:43:16;;;;;;;14.90;8.95;;;;;;;;;;5061825;28;20060;-71
2023/01/22 01:46:02;;;;;;;14.90;8.02;;;;;;;;;;5062523;28;20653;-71
2023/01/22 01:48:50;;;;;;;14.23;7.97;;;;;;;;;;5066630;28;20036;-71
2023/01/22 01:51:35;;;;;;;15.43;7.63;;;;;;;;;;5051799;28;20115;-77
2023/01/22 01:54:21;;;;;;;15.52;7.88;;;;;;;;;;5066348;28;20024;-75
2023/01/22 01:57:08;;;;;;;12.27;7.95;;;;;;;;;;5077672;28;20036;-74
2023/01/22 01:59:53;;;;;;;14.02;7.78;;;;;;;;;;5068011;28;20669;-73
2023/01/22 02:02:40;;;;;;;14.20;7.60;;;;;;;;;;5075389;28;20024;-73
2023/01/22 02:05:27;;;;;;;15.32;8.15;;;;;;;;;;5068434;28;20525;-73
2023/01/22 02:08:13;;;;;;;15.63;9.63;;;;;;;;;;5062198;28;20035;-73
2023/01/22 02:10:58;;;;;;;13.60;7.93;;;;;;;;;;5059265;28;20032;-82
2023/01/22 02:13:46;;;;;;;15.77;8.57;;;;;;;;;;5064344;28;20032;-71
2023/01/22 02:16:32;;;;;;;14.15;7.82;;;;;;;;;;5046625;28;20682;-71
2023/01/22 02:19:17;;;;;;;13.48;7.88;;;;;;;;;;5056662;28;20513;-71
2023/01/22 02:22:10;;;;;;;11.57;7.97;;;;;;;;;;5070533;28;20021;-73
2023/01/22 02:24:55;;;;;;;13.05;7.35;;;;;;;;;;5045986;28;20044;-72
2023/01/22 02:27:40;;;;;;;16.52;8.48;;;;;;;;;;5050433;28;20840;-76
2023/01/22 02:30:25;;;;;;;13.25;7.32;;;;;;;;;;5063429;28;20115;-77
2023/01/22 02:33:10;;;;;;;13.32;7.60;;;;;;;;;;5067286;28;20146;-77
2023/01/22 02:35:56;;;;;;;13.02;7.68;;;;;;;;;;5054385;28;20059;-76
2023/01/22 02:38:41;;;;;;;12.95;7.82;;;;;;;;;;5046400;28;20028;-78
2023/01/22 02:41:26;;;;;;;14.07;8.13;;;;;;;;;;5040379;28;20090;-74
2023/01/22 02:44:12;;;;;;;12.98;7.72;;;;;;;;;;5050009;28;20566;-75
2023/01/22 02:46:57;;;;;;;15.45;8.18;;;;;;;;;;5060700;28;21424;-75
2023/01/22 02:49:42;;;;;;;14.15;8.02;;;;;;;;;;5049191;28;20108;-80
2023/01/22 02:52:28;;;;;;;12.98;8.13;;;;;;;;;;5054510;28;20083;-82
2023/01/22 02:55:13;;;;;;;13.75;7.97;;;;;;;;;;5062310;28;20499;-84
2023/01/22 02:57:58;;;;;;;14.48;8.35;;;;;;;;;;5062654;28;20025;-83
2023/01/22 03:00:43;;;;;;;15.18;8.38;;;;;;;;;;5063817;28;20475;-81
2023/01/22 03:03:28;;;;;;;12.88;7.72;;;;;;;;;;5045805;28;20028;-79
2023/01/22 03:06:14;;;;;;;14.77;8.75;;;;;;;;;;5060571;28;20016;-81
2023/01/22 03:08:59;;;;;;;13.27;7.93;;;;;;;;;;5051302;28;20417;-78
2023/01/22 03:11:45;;;;;;;15.40;8.88;;;;;;;;;;5058227;28;20033;-77
2023/01/22 03:23:44;;;;;;;13.73;8.00;;;;;;;;;;5056453;28;20033;-75
2023/01/22 03:26:30;;;;;;;14.85;8.45;;;;;;;;;;5064993;28;20391;-75
2023/01/22 03:29:15;;;;;;;13.85;8.50;;;;;;;;;;5065971;28;20046;-73
2023/01/22 03:32:00;;;;;;;14.13;8.35;;;;;;;;;;5048120;28;20166;-72
2023/01/22 03:34:46;;;;;;;13.52;8.23;;;;;;;;;;5063794;28;20024;-71
2023/01/22 03:37:31;;;;;;;14.10;8.77;;;;;;;;;;5066230;28;20495;-72
2023/01/22 03:40:16;;;;;;;13.30;8.40;;;;;;;;;;5051013;28;20031;-75
2023/01/22 03:43:01;;;;;;;15.27;8.20;;;;;;;;;;5060570;28;20050;-70
2023/01/22 03:45:47;;;;;;;12.98;7.82;;;;;;;;;;5057528;28;20040;-70
2023/01/22 03:48:32;;;;;;;11.88;7.65;;;;;;;;;;5043362;28;20032;-70
2023/01/22 03:51:17;;;;;;;16.95;8.75;;;;;;;;;;5050315;28;20021;-69
2023/01/22 03:54:03;;;;;;;15.27;8.27;;;;;;;;;;5051637;28;20029;-71
2023/01/22 03:56:48;;;;;;;14.25;7.75;;;;;;;;;;5059341;28;20097;-72
2023/01/22 03:59:33;;;;;;;13.73;8.15;;;;;;;;;;5050421;28;20022;-70
2023/01/22 04:02:18;;;;;;;15.52;8.20;;;;;;;;;;5046314;28;20117;-71
2023/01/22 04:05:05;;;;;;;13.23;7.47;;;;;;;;;;5049373;28;20071;-74
2023/01/22 04:07:50;;;;;;;13.70;8.38;;;;;;;;;;5061332;28;20036;-73
2023/01/22 04:10:35;;;;;;;14.98;8.77;;;;;;;;;;5057479;28;20324;-72
2023/01/22 04:13:20;;;;;;;15.43;8.73;;;;;;;;;;5079233;28;20028;-72
2023/01/22 04:16:06;;;;;;;15.40;8.60;;;;;;;;;;5062055;28;20039;-73
2023/01/22 04:18:52;;;;;;;13.60;8.15;;;;;;;;;;5064249;28;20108;-76
2023/01/22 04:21:37;;;;;;;16.52;9.35;;;;;;;;;;5057739;28;20024;-73
2023/01/22 04:24:22;;;;;;;14.25;7.43;;;;;;;;;;5070569;28;20388;-72
2023/01/22 04:27:07;;;;;;;13.23;8.32;;;;;;;;;;5046424;28;20037;-73
2023/01/22 04:29:52;;;;;;;14.25;8.35;;;;;;;;;;5056250;28;20048;-72
2023/01/22 04:32:38;;;;;;;13.13;8.00;;;;;;;;;;5049430;28;20053;-72
2023/01/22 04:35:23;;;;;;;14.38;8.38;;;;;;;;;;5075233;28;20372;-72
2023/01/22 04:38:10;;;;;;;13.77;8.55;;;;;;;;;;5059578;28;20025;-72
2023/01/22 04:40:55;;;;;;;15.27;8.65;;;;;;;;;;5064547;28;20024;-76
2023/01/22 04:44:01;;;;;;;15.52;8.82;;;;;;;;;;5104015;27;20495;-76
2023/01/22 04:46:47;;;;;;;15.23;9.20;;;;;;;;;;5101784;28;20019;-75
2023/01/22 04:49:32;;;;;;;16.30;9.80;;;;;;;;;;5098817;28;20024;-76
2023/01/22 04:52:17;;;;;;;13.85;8.48;;;;;;;;;;5110533;27;20024;-78
2023/01/22 04:55:02;;;;;;;12.85;7.47;;;;;;;;;;5083228;28;20122;-76
2023/01/22 04:57:48;;;;;;;14.13;8.00;;;;;;;;;;5091974;28;20028;-78
2023/01/22 05:00:33;;;;;;;13.55;8.10;;;;;;;;;;5099477;28;20031;-77
2023/01/22 05:03:18;;;;;;;15.55;8.63;;;;;;;;;;5075576;28;20039;-77
2023/01/22 05:06:04;;;;;;;15.63;8.77;;;;;;;;;;5100344;28;20641;-76
2023/01/22 05:08:49;;;;;;;15.25;9.50;;;;;;;;;;5086819;28;20027;-77
2023/01/22 05:11:34;;;;;;;16.77;9.52;;;;;;;;;;5085819;28;20158;-76
2023/01/22 05:14:19;;;;;;;17.45;9.98;;;;;;;;;;5107459;28;20334;-71
2023/01/22 05:17:05;;;;;;;16.80;8.60;;;;;;;;;;5088700;28;20630;-75
2023/01/22 05:19:50;;;;;;;14.55;8.32;;;;;;;;;;5095812;28;20416;-73
2023/01/22 05:22:35;;;;;;;17.95;9.35;;;;;;;;;;5096193;28;20038;-75
2023/01/22 05:25:20;;;;;;;16.13;9.48;;;;;;;;;;5087792;28;20028;-74
2023/01/22 05:28:05;;;;;;;17.55;9.35;;;;;;;;;;5084600;28;20028;-74
2023/01/22 05:30:51;;;;;;;15.88;9.35;;;;;;;;;;5094287;28;20031;-71
2023/01/22 05:33:38;;;;;;;16.75;8.93;;;;;;;;;;5090139;28;20032;-77
2023/01/22 05:36:23;;;;;;;17.13;10.10;;;;;;;;;;5100270;28;20035;-74
2023/01/22 05:39:08;;;;;;;16.90;10.73;;;;;;;;;;5085744;28;20515;-72
2023/01/22 05:41:54;;;;;;;15.65;10.10;;;;;;;;;;5069553;28;20064;-71
2023/01/22 05:44:39;;;;;;;16.13;9.45;;;;;;;;;;5071898;28;20467;-74
2023/01/22 05:47:24;;;;;;;17.35;9.73;;;;;;;;;;5084953;28;20208;-70
2023/01/22 05:50:09;;;;;;;16.90;9.80;;;;;;;;;;5077871;28;20134;-71
2023/01/22 05:52:55;;;;;;;16.10;9.20;;;;;;;;;;5091744;28;20028;-70
2023/01/22 05:55:40;;;;;;;20.23;9.63;;;;;;;;;;5062290;28;20031;-70
2023/01/22 05:58:25;;;;;;;17.02;9.43;;;;;;;;;;5087380;28;20032;-70
2023/01/22 06:01:10;;;;;;;16.42;8.45;;;;;;;;;;5064617;28;20036;-69
2023/01/22 06:03:55;;;;;;;15.82;7.95;;;;;;;;;;5079291;28;20032;-70
2023/01/22 06:06:41;;;;;;;17.88;10.15;;;;;;;;;;5056249;28;20024;-70
2023/01/22 06:09:26;;;;;;;16.88;9.88;;;;;;;;;;5066802;28;20032;-72
2023/01/22 06:12:11;;;;;;;16.75;8.70;;;;;;;;;;5070820;28;20044;-76
2023/01/22 06:14:57;;;;;;;16.98;9.40;;;;;;;;;;5071154;28;20442;-77
2023/01/22 06:17:42;;;;;;;15.05;9.93;;;;;;;;;;5081718;28;20330;-76
2023/01/22 06:20:27;;;;;;;18.13;9.82;;;;;;;;;;5083471;28;20029;-77
2023/01/22 06:23:14;;;;;;;22.80;11.40;;;;;;;;;;5083233;28;20047;-77
2023/01/22 06:26:00;;;;;;;18.65;10.07;;;;;;;;;;5075462;28;20578;-75
2023/01/22 06:28:45;;;;;;;18.23;9.73;;;;;;;;;;5059490;28;20509;-82
2023/01/22 06:31:31;;;;;;;17.30;10.32;;;;;;;;;;5066118;28;20028;-78
2023/01/22 06:34:16;;;;;;;18.73;10.13;;;;;;;;;;5070210;28;20081;-78
2023/01/22 06:37:01;;;;;;;21.30;11.95;;;;;;;;;;5067546;28;20036;-77
2023/01/22 06:39:47;;;;;;;16.77;9.52;;;;;;;;;;5059673;28;20467;-80
2023/01/22 06:42:34;;;;;;;17.02;10.38;;;;;;;;;;5057881;28;20056;-78
2023/01/22 06:45:20;;;;;;;20.30;12.25;;;;;;;;;;5063788;28;20025;-76
2023/01/22 06:48:05;;;;;;;17.88;10.13;;;;;;;;;;5067162;28;20044;-71
2023/01/22 06:50:50;;;;;;;17.98;10.25;;;;;;;;;;5078753;28;20361;-72
2023/01/22 06:53:35;;;;;;;18.15;10.23;;;;;;;;;;5079780;28;20157;-71
2023/01/22 06:56:21;;;;;;;18.10;11.30;;;;;;;;;;5059520;28;20080;-70
2023/01/22 06:59:06;;;;;;;20.52;11.18;;;;;;;;;;5065882;28;20563;-70
2023/01/22 07:01:51;;;;;;;17.83;10.43;;;;;;;;;;5077703;28;20027;-70
2023/01/22 07:04:37;;;;;;;20.33;10.98;;;;;;;;;;5071904;28;20116;-83
2023/01/22 07:07:22;;;;;;;18.08;10.35;;;;;;;;;;5064343;28;20554;-74
2023/01/22 07:10:08;;;;;;;19.15;9.98;;;;;;;;;;5076813;28;20020;-75
2023/01/22 07:12:54;;;;;;;20.30;11.88;;;;;;;;;;5061040;28;20418;-75
2023/01/22 07:15:39;;;;;;;18.20;10.45;;;;;;;;;;5091838;28;20059;-75
2023/01/22 07:18:24;;;;;;;18.73;10.45;;;;;;;;;;5066986;28;20056;-75
2023/01/22 07:21:10;;;;;;;17.75;10.25;;;;;;;;;;5066124;28;20324;-74
2023/01/22 07:23:55;;;;;;;17.55;10.02;;;;;;;;;;5058246;28;20122;-70
2023/01/22 07:26:42;;;;;;;16.73;10.45;;;;;;;;;;5064225;28;20028;-70
2023/01/22 07:29:27;;;;;;;18.10;10.73;;;;;;;;;;5054414;28;20040;-70
2023/01/22 07:32:12;;;;;;;18.48;10.85;;;;;;;;;;5075153;28;20650;-73
2023/01/22 07:34:58;;;;;;;19.90;10.07;;;;;;;;;;5072875;28;20024;-70
2023/01/22 07:37:50;;;;;;;18.40;10.73;;;;;;;;;;5071032;28;20039;-69
2023/01/22 07:40:35;;;;;;;21.30;12.10;;;;;;;;;;5072704;28;20016;-70
2023/01/22 07:43:20;;;;;;;18.77;10.55;;;;;;;;;;5076834;28;20060;-70
2023/01/22 07:46:06;;;;;;;16.83;9.95;;;;;;;;;;5077708;28;20019;-74
2023/01/22 07:48:51;;;;;;;21.45;10.60;;;;;;;;;;5074170;28;20476;-72
2023/01/22 07:51:37;;;;;;;19.33;11.45;;;;;;;;;;5074454;28;20115;-73
2023/01/22 07:54:22;;;;;;;20.83;10.32;;;;;;;;;;5080039;28;20017;-74
2023/01/22 07:57:10;;;;;;;20.42;11.70;;;;;;;;;;5073482;28;20549;-70
2023/01/22 07:59:55;;;;;;;19.42;10.40;;;;;;;;;;5067223;28;20572;-71
2023/01/22 08:02:41;;;;;;;18.17;10.80;;;;;;;;;;5082864;28;20028;-73
2023/01/22 08:05:26;;;;;;;17.80;10.45;;;;;;;;;;5070757;28;20440;-73
2023/01/22 08:08:12;;;;;;;18.77;10.70;;;;;;;;;;5077549;28;20077;-74
2023/01/22 08:10:58;;;;;;;18.35;11.30;;;;;;;;;;5060285;28;20394;-75
2023/01/22 08:13:44;;;;;;;20.90;12.05;;;;;;;;;;5061110;28;20028;-75
2023/01/22 08:16:29;;;;;;;18.30;10.68;;;;;;;;;;5072935;28;20498;-75
2023/01/22 08:19:14;;;;;;;20.88;11.05;;;;;;;;;;5068601;28;20027;-75
2023/01/22 08:21:59;;;;;;;18.30;10.70;;;;;;;;;;5079116;28;20529;-75
2023/01/22 08:24:44;;;;;;;18.65;10.55;;;;;;;;;;5056463;28;20517;-76
2023/01/22 08:27:30;;;;;;;20.30;11.30;;;;;;;;;;5078283;28;20099;-76
2023/01/22 08:30:15;;;;;;;18.38;10.48;;;;;;;;;;5067496;28;20394;-77
2023/01/22 08:33:03;;;;;;;19.02;10.00;;;;;;;;;;5060193;28;20490;-78
2023/01/22 08:35:49;;;;;;;18.45;11.32;;;;;;;;;;5075282;28;20028;-74
2023/01/22 08:38:34;;;;;;;18.45;10.25;;;;;;;;;;5081698;28;20047;-73
2023/01/22 08:41:19;;;;;;;15.85;8.75;;;;;;;;;;5059619;28;20476;-77
2023/01/22 08:44:05;;;;;;;19.17;10.93;;;;;;;;;;5064810;28;20036;-73
2023/01/22 08:46:50;;;;;;;18.50;10.55;;;;;;;;;;5071160;28;20028;-74
2023/01/22 08:49:35;;;;;;;17.13;10.23;;;;;;;;;;5066295;28;20667;-73
2023/01/22 08:52:21;;;;;;;16.52;10.52;;;;;;;;;;5060866;28;20451;-72
2023/01/22 08:55:08;;;;;;;17.17;10.00;;;;;;;;;;5062309;28;20020;-77
2023/01/22 08:57:54;;;;;;;20.52;11.88;;;;;;;;;;5085061;28;20017;-74
2023/01/22 09:00:39;;;;;;;20.00;11.05;;;;;;;;;;5063666;28;20028;-73
2023/01/22 09:03:25;;;;;;;18.85;10.80;;;;;;;;;;5060363;28;20086;-74
2023/01/22 09:06:10;;;;;;;21.35;11.45;;;;;;;;;;5065957;28;20025;-72
2023/01/22 09:08:57;;;;;;;20.55;11.52;;;;;;;;;;5058089;28;20111;-73
2023/01/22 09:11:43;;;;;;;18.27;9.77;;;;;;;;;;5060031;28;20024;-74
2023/01/22 09:14:29;;;;;;;19.58;10.75;;;;;;;;;;5075499;28;20043;-71
2023/01/22 09:17:14;;;;;;;17.17;10.63;;;;;;;;;;5085619;28;21499;-85
2023/01/22 09:19:59;;;;;;;18.38;10.57;;;;;;;;;;5080390;28;20036;-84
2023/01/22 09:22:45;;;;;;;17.98;10.32;;;;;;;;;;5073842;28;20033;-83
2023/01/22 09:25:30;;;;;;;18.80;10.32;;;;;;;;;;5073305;28;20052;-80
2023/01/22 09:28:16;;;;;;;16.95;9.82;;;;;;;;;;5069679;28;20021;-83
2023/01/22 09:31:01;;;;;;;16.35;9.23;;;;;;;;;;5068155;28;20028;-75
2023/01/22 09:33:46;;;;;;;17.60;9.90;;;;;;;;;;5059191;28;20691;-74
2023/01/22 09:36:31;;;;;;;14.95;9.63;;;;;;;;;;5057785;28;20036;-74
2023/01/22 09:39:17;;;;;;;19.60;10.73;;;;;;;;;;5064945;28;20032;-75
2023/01/22 09:42:02;;;;;;;18.70;10.57;;;;;;;;;;5062530;28;20140;-74
2023/01/22 09:44:50;;;;;;;18.83;10.98;;;;;;;;;;5057631;28;20033;-76
2023/01/22 09:47:39;;;;;;;17.15;9.45;;;;;;;;;;5086912;28;20051;-75
2023/01/22 09:50:26;;;;;;;17.23;10.15;;;;;;;;;;5064001;28;20021;-80
2023/01/22 09:53:15;;;;;;;16.60;10.15;;;;;;;;;;5088476;28;20499;-77
2023/01/22 09:56:03;;;;;;;16.50;10.10;;;;;;;;;;5062603;28;20028;-77
2023/01/22 09:58:50;;;;;;;19.40;10.52;;;;;;;;;;5061327;28;20036;-79
2023/01/22 10:01:35;;;;;;;18.23;9.93;;;;;;;;;;5071603;28;20192;-75
2023/01/22 10:04:33;;;;;;;17.23;10.23;;;;;;;;;;5075661;28;20063;-79
2023/01/22 10:07:31;;;;;;;19.40;10.93;;;;;;;;;;5067717;28;20086;-77
2023/01/22 10:10:20;;;;;;;16.23;9.50;;;;;;;;;;5065597;28;20065;-76
2023/01/22 10:13:11;;;;;;;18.83;10.88;;;;;;;;;;5057116;28;20055;-71
2023/01/22 10:15:57;;;;;;;19.13;10.25;;;;;;;;;;5061968;28;20045;-72
2023/01/22 10:18:45;;;;;;;18.77;10.55;;;;;;;;;;5070481;28;20042;-71
2023/01/22 10:21:32;;;;;;;18.25;10.32;;;;;;;;;;5070367;28;20031;-70
2023/01/22 10:24:17;;;;;;;18.92;10.02;;;;;;;;;;5062153;28;20391;-72
2023/01/22 10:27:10;;;;;;;19.05;10.43;;;;;;;;;;5072560;28;20024;-75
2023/01/22 10:30:16;;;;;;;16.08;9.18;;;;;;;;;;5069706;28;20035;-83
2023/01/22 10:33:03;;;;;;;17.50;10.15;;;;;;;;;;5078075;28;20319;-86
2023/01/22 10:35:51;;;;;;;17.13;10.30;;;;;;;;;;5064780;28;20035;-84
2023/01/22 10:38:36;;;;;;;20.60;11.35;;;;;;;;;;5074419;28;20059;-83
2023/01/22 10:41:22;;;;;;;19.65;11.60;;;;;;;;;;5067772;28;20039;-83
2023/01/22 10:44:16;;;;;;;20.65;10.15;;;;;;;;;;5068987;28;20068;-77
2023/01/22 10:47:11;;;;;;;18.60;9.70;;;;;;;;;;5088205;28;20054;-78
2023/01/22 10:50:00;;;;;;;19.02;10.13;;;;;;;;;;5056423;28;20107;-76
2023/01/22 10:52:50;;;;;;;18.88;11.68;;;;;;;;;;5075291;28;20493;-77
2023/01/22 10:55:38;;;;;;;18.00;10.27;;;;;;;;;;5057567;28;20140;-75
2023/01/22 10:58:26;;;;;;;19.33;11.43;;;;;;;;;;5060997;28;20525;-74
2023/01/22 11:01:41;;;;;;;18.77;11.35;;;;;;;;;;5067877;28;20236;-76
2023/01/22 11:04:28;;;;;;;19.63;10.60;;;;;;;;;;5070138;28;20216;-73
2023/01/22 11:07:16;;;;;;;16.40;9.75;;;;;;;;;;5066691;28;20056;-69
2023/01/22 11:10:01;;;;;;;17.95;9.50;;;;;;;;;;5073353;28;20192;-69
2023/01/22 11:12:49;;;;;;;19.08;11.95;;;;;;;;;;5054595;28;20024;-71
2023/01/22 11:15:52;;;;;;;19.55;11.20;;;;;;;;;;5053890;28;20015;-71
2023/01/22 11:18:39;;;;;;;16.70;10.15;;;;;;;;;;5058216;28;20089;-71
2023/01/22 11:21:27;;;;;;;17.70;10.40;;;;;;;;;;5058658;28;20377;-77
2023/01/22 11:24:14;;;;;;;16.48;10.50;;;;;;;;;;5077611;28;20600;-70
2023/01/22 11:26:59;;;;;;;19.40;12.00;;;;;;;;;;5070176;28;20056;-71
2023/01/22 11:30:05;;;;;;;18.95;11.52;;;;;;;;;;5058977;28;20016;-72
2023/01/22 11:32:56;;;;;;;18.17;10.55;;;;;;;;;;5064868;28;20027;-68
2023/01/22 11:36:00;;;;;;;17.90;10.63;;;;;;;;;;5059371;28;20027;-72
2023/01/22 11:38:55;;;;;;;16.80;8.90;;;;;;;;;;5069785;28;20416;-69
2023/01/22 11:41:59;;;;;;;17.83;10.00;;;;;;;;;;5057243;28;20024;-82
2023/01/22 11:45:03;;;;;;;17.38;10.68;;;;;;;;;;5055706;28;20033;-83
2023/01/22 11:47:57;;;;;;;18.27;10.63;;;;;;;;;;5080935;28;20053;-84
2023/01/22 11:50:46;;;;;;;19.33;10.40;;;;;;;;;;5077399;28;20032;-84
2023/01/22 11:53:37;;;;;;;17.75;10.02;;;;;;;;;;5068809;28;20077;-85
2023/01/22 11:56:47;;;;;;;16.30;9.48;;;;;;;;;;5084499;28;20045;-83
2023/01/22 11:59:40;;;;;;;17.98;10.15;;;;;;;;;;5066860;28;20207;-77
2023/01/22 12:02:58;;;;;;;16.33;9.68;;;;;;;;;;5067705;28;20124;-77
2023/01/22 12:05:43;;;;;;;16.92;9.80;;;;;;;;;;5028093;28;20096;-79
2023/01/22 12:08:40;;;;;;;14.90;8.07;;;;;;;;;;5084748;28;20364;-77
2023/01/22 12:11:29;;;;;;;16.35;9.43;;;;;;;;;;5073974;28;20021;-77
2023/01/22 12:14:18;;;;;;;17.05;8.52;;;;;;;;;;5053931;28;20024;-77
2023/01/22 12:17:03;;;;;;;17.65;9.10;;;;;;;;;;5064507;28;20039;-79
2023/01/22 12:20:07;;;;;;;15.75;8.82;;;;;;;;;;5055257;28;20036;-78
2023/01/22 12:22:56;;;;;;;18.52;9.15;;;;;;;;;;5060535;28;20031;-80
2023/01/22 12:25:51;;;;;;;15.43;9.40;;;;;;;;;;5060809;28;20031;-79
2023/01/22 12:29:09;;;;;;;14.40;7.88;;;;;;;;;;5083740;28;20529;-76
2023/01/22 12:31:54;;;;;;;16.05;9.95;;;;;;;;;;5049677;28;20040;-77
2023/01/22 12:34:46;;;;;;;16.58;8.93;;;;;;;;;;5071298;28;20085;-71
2023/01/22 12:37:39;;;;;;;19.38;9.60;;;;;;;;;;5071860;28;20068;-75
2023/01/22 12:40:39;;;;;;;15.80;8.45;;;;;;;;;;5081532;28;20064;-70
2023/01/22 12:43:35;;;;;;;17.63;10.30;;;;;;;;;;5086459;28;20056;-70
2023/01/22 12:46:33;;;;;;;15.50;8.80;;;;;;;;;;5055523;28;20637;-70
2023/01/22 12:49:19;;;;;;;15.70;8.98;;;;;;;;;;5074391;28;20499;-71
2023/01/22 12:52:24;;;;;;;14.45;8.55;;;;;;;;;;5073558;28;20479;-73
2023/01/22 12:55:41;;;;;;;16.05;9.25;;;;;;;;;;5068614;28;20027;-75
2023/01/22 12:58:29;;;;;;;15.63;8.43;;;;;;;;;;5072714;28;20036;-84
2023/01/22 13:01:14;;;;;;;15.85;9.02;;;;;;;;;;5065377;28;20096;-87
2023/01/22 13:04:06;;;;;;;14.65;8.90;;;;;;;;;;5081765;28;20032;-85
2023/01/22 13:07:01;;;;;;;16.02;9.40;;;;;;;;;;5081100;28;20023;-84
2023/01/22 13:09:46;;;;;;;14.80;8.77;;;;;;;;;;5082800;28;20023;-86
2023/01/22 13:12:44;;;;;;;13.73;8.50;;;;;;;;;;5067141;28;20019;-76
2023/01/22 13:15:31;;;;;;;15.95;8.20;;;;;;;;;;5062990;28;20085;-81
2023/01/22 13:18:24;;;;;;;14.65;8.30;;;;;;;;;;5071597;28;20036;-82
2023/01/22 13:21:10;;;;;;;14.50;8.60;;;;;;;;;;5083786;28;20511;-79
2023/01/22 13:23:57;;;;;;;14.02;8.52;;;;;;;;;;5077505;28;20432;-78
2023/01/22 13:26:49;;;;;;;14.57;9.13;;;;;;;;;;5062748;28;20036;-78
2023/01/22 13:29:39;;;;;;;11.98;7.45;;;;;;;;;;5071886;28;20475;-76
2023/01/22 13:32:28;;;;;;;17.05;9.02;;;;;;;;;;5081777;28;20029;-77
2023/01/22 13:35:14;;;;;;;14.65;7.97;;;;;;;;;;5060168;28;20058;-77
2023/01/22 13:37:59;;;;;;;13.48;7.72;;;;;;;;;;5083880;28;20039;-76
2023/01/22 13:40:47;;;;;;;14.38;8.40;;;;;;;;;;5061492;28;20020;-76
2023/01/22 13:43:33;;;;;;;14.88;8.15;;;;;;;;;;5076993;28;20052;-75
2023/01/22 13:46:19;;;;;;;13.77;8.43;;;;;;;;;;5080692;28;20615;-75
2023/01/22 13:49:06;;;;;;;13.43;7.05;;;;;;;;;;5088012;28;20487;-77
2023/01/22 13:51:53;;;;;;;14.63;8.93;;;;;;;;;;5086199;28;20475;-71
2023/01/22 13:54:43;;;;;;;16.08;8.60;;;;;;;;;;5071287;28;20031;-71
2023/01/22 13:57:28;;;;;;;15.02;8.80;;;;;;;;;;5086117;28;20070;-71
2023/01/22 14:00:25;;;;;;;13.02;7.78;;;;;;;;;;5072148;28;20028;-70
2023/01/22 14:03:22;;;;;;;14.10;8.27;;;;;;;;;;5063823;28;20551;-70
2023/01/22 14:06:11;;;;;;;14.10;7.75;;;;;;;;;;5080315;28;20023;-71
2023/01/22 14:08:57;;;;;;;;;;;;;;;;;;5063322;28;20024;-71
2023/01/22 14:11:42;;;;;;;11.50;7.05;;;;;;;;;;5080849;28;20330;-78
2023/01/22 14:14:37;;;;;;;14.48;8.75;;;;;;;;;;5057983;28;20472;-77
2023/01/22 14:17:22;;;;;;;11.55;7.20;;;;;;;;;;5073531;28;20043;-77
2023/01/22 14:20:08;;;;;;;11.82;8.13;;;;;;;;;;5056421;28;20733;-76
2023/01/22 14:22:53;;;;;;;12.55;7.47;;;;;;;;;;5058630;28;20052;-78
2023/01/22 14:25:39;;;;;;;15.00;8.15;;;;;;;;;;5061201;28;20380;-73
2023/01/22 14:28:27;;;;;;;13.10;8.05;;;;;;;;;;5068409;28;20034;-76
2023/01/22 14:31:12;;;;;;;12.63;8.35;;;;;;;;;;5075652;28;20471;-76
2023/01/22 14:33:58;;;;;;;13.48;7.38;;;;;;;;;;5072883;28;20023;-75
2023/01/22 14:36:46;;;;;;;12.95;8.05;;;;;;;;;;5065347;28;20028;-76
2023/01/22 14:39:32;;;;;;;14.52;8.57;;;;;;;;;;5081932;28;20029;-74
2023/01/22 14:42:17;;;;;;;13.20;6.88;;;;;;;;;;5069941;28;20098;-76
2023/01/22 14:45:03;;;;;;;11.70;6.38;;;;;;;;;;5077996;28;20111;-71
2023/01/22 14:47:52;;;;;;;11.98;6.75;;;;;;;;;;5066624;28;20032;-72
2023/01/22 14:50:37;;;;;;;13.68;6.93;;;;;;;;;;5074181;28;20020;-72
2023/01/22 14:53:23;;;;;;;13.48;7.72;;;;;;;;;;5056522;28;20029;-73
2023/01/22 14:56:08;;;;;;;12.45;7.72;;;;;;;;;;5060647;28;20024;-72
2023/01/22 14:58:53;;;;;;;12.82;7.30;;;;;;;;;;5084523;28;20475;-72
2023/01/22 15:01:38;;;;;;;10.43;6.25;;;;;;;;;;5070339;28;20074;-85
2023/01/22 15:04:24;;;;;;;13.68;7.50;;;;;;;;;;5062407;28;20147;-79
2023/01/22 15:07:10;;;;;;;10.80;6.82;;;;;;;;;;5056055;28;20029;-76
2023/01/22 15:09:55;;;;;;;10.25;6.22;;;;;;;;;;5078211;28;20028;-77
2023/01/22 15:12:43;;;;;;;12.45;6.75;;;;;;;;;;5087562;28;20024;-76
2023/01/22 15:15:29;;;;;;;10.32;6.00;;;;;;;;;;5071793;28;20031;-76
2023/01/22 15:18:14;;;;;;;12.82;6.72;;;;;;;;;;5096789;28;20042;-75
2023/01/22 15:21:00;;;;;;;13.57;7.20;;;;;;;;;;5068402;28;20089;-78
2023/01/22 15:23:45;;;;;;;11.10;6.57;;;;;;;;;;5076553;28;20060;-72
2023/01/22 15:26:33;;;;;;;10.55;6.45;;;;;;;;;;5060598;28;20021;-71
2023/01/22 15:29:19;;;;;;;11.98;7.20;;;;;;;;;;5066471;28;20134;-71
2023/01/22 15:32:04;;;;;;;13.05;7.20;;;;;;;;;;5076298;28;20518;-71
2023/01/22 15:34:49;;;;;;;10.55;6.43;;;;;;;;;;5069108;28;20040;-72
2023/01/22 15:37:34;;;;;;;12.88;6.55;;;;;;;;;;5067311;28;20024;-71
2023/01/22 15:40:20;;;;;;;12.10;7.13;;;;;;;;;;5080068;28;20058;-75
2023/01/22 15:43:05;;;;;;;11.25;7.00;;;;;;;;;;5057325;28;20051;-76
2023/01/22 15:45:50;;;;;;;10.43;5.97;;;;;;;;;;5070451;28;20026;-75
2023/01/22 15:48:36;;;;;;;10.45;5.95;;;;;;;;;;5074053;28;20053;-75
2023/01/22 15:51:21;;;;;;;9.10;5.97;;;;;;;;;;5076981;28;20483;-77
2023/01/22 15:54:07;;;;;;;11.15;6.72;;;;;;;;;;5085877;28;20048;-78
2023/01/22 15:56:52;;;;;;;15.20;7.00;;;;;;;;;;5063035;28;20036;-74
2023/01/22 15:59:40;;;;;;;11.40;7.20;;;;;;;;;;5075660;28;20521;-79
2023/01/22 16:02:25;;;;;;;10.55;6.72;;;;;;;;;;5066562;28;20036;-71
2023/01/22 16:05:12;;;;;;;10.30;6.38;;;;;;;;;;5055321;28;20430;-71
2023/01/22 16:07:57;;;;;;;10.32;6.30;;;;;;;;;;5067075;28;20673;-72
2023/01/22 16:10:42;;;;;;;11.27;6.63;;;;;;;;;;5063225;28;20040;-72
2023/01/22 16:13:28;;;;;;;12.88;7.28;;;;;;;;;;5058405;28;20030;-76
2023/01/22 16:16:32;;;;;;;10.32;7.00;;;;;;;;;;5064886;28;20032;-73
2023/01/22 16:19:17;;;;;;;14.48;7.55;;;;;;;;;;5075642;28;20044;-76
2023/01/22 16:22:03;;;;;;;10.68;6.45;;;;;;;;;;5076668;28;20024;-75
2023/01/22 16:24:48;;;;;;;9.90;5.90;;;;;;;;;;5082857;28;20077;-76
2023/01/22 16:27:33;;;;;;;10.85;6.47;;;;;;;;;;5070234;28;20471;-76
2023/01/22 16:30:18;;;;;;;10.80;6.40;;;;;;;;;;5067267;28;20036;-77
2023/01/22 16:33:15;;;;;;;10.65;6.15;;;;;;;;;;5070160;28;20161;-77